Time;durP1;ratioP1;P1;durP2;ratioP2;P2;SDS_P1;SDS_P2;PMS_P1;PMS_P2;Temp;Humidity;BMP_temperature;BMP_pressure;BME280_temperature;BME280_humidity;BME280_pressure;Samples;Min_cycle;Max_cycle;Signal;HPM_P1;HPM_P2
2022/04/30 00:00:06;;;;;;;19.47;7.50;;;;;;;36.01;42.04;101035.00;4824026;29;20797;-71
2022/04/30 00:02:32;;;;;;;12.97;7.00;;;;;;;35.70;42.49;101029.13;4824178;29;20421;-72
2022/04/30 00:04:59;;;;;;;18.93;9.47;;;;;;;35.82;41.76;101020.63;4824086;29;20425;-73
2022/04/30 00:07:25;;;;;;;17.83;9.80;;;;;;;35.83;41.76;101021.44;4824014;29;20463;-74
2022/04/30 00:09:51;;;;;;;18.03;9.60;;;;;;;35.91;41.72;101021.66;4824071;29;20429;-73
2022/04/30 00:12:17;;;;;;;20.27;9.30;;;;;;;36.01;41.73;101018.81;4825136;29;20433;-73
2022/04/30 00:14:46;;;;;;;13.67;9.10;;;;;;;35.97;41.76;101025.91;4823325;29;20414;-72
2022/04/30 00:17:13;;;;;;;20.43;8.53;;;;;;;36.11;41.95;101019.78;4824090;29;20414;-73
2022/04/30 00:19:39;;;;;;;18.73;8.10;;;;;;;36.37;41.16;101010.25;4825124;29;20740;-71
2022/04/30 00:22:06;;;;;;;14.97;8.73;;;;;;;35.75;42.75;101015.59;4808779;29;20473;-73
2022/04/30 00:24:32;;;;;;;19.40;10.10;;;;;;;35.93;42.86;101013.25;4823525;29;20481;-73
2022/04/30 00:27:01;;;;;;;16.80;9.07;;;;;;;35.85;42.94;101014.69;4823813;29;20421;-73
2022/04/30 00:29:29;;;;;;;14.10;10.37;;;;;;;35.90;42.81;101020.00;4823739;29;20429;-73
2022/04/30 00:31:57;;;;;;;17.23;9.83;;;;;;;35.89;43.19;101018.38;4808640;29;20425;-71
2022/04/30 00:34:23;;;;;;;17.63;8.10;;;;;;;35.84;43.39;101014.94;4823725;29;20422;-71
2022/04/30 00:36:49;;;;;;;13.10;8.73;;;;;;;36.00;43.59;101017.22;4825065;29;20785;-76
2022/04/30 00:39:16;;;;;;;13.53;9.00;;;;;;;36.14;43.18;101013.78;4823620;29;20466;-73
2022/04/30 00:41:46;;;;;;;15.53;9.30;;;;;;;36.13;43.62;101013.00;4823525;29;20465;-71
2022/04/30 00:44:19;;;;;;;25.83;9.27;;;;;;;36.11;43.74;101020.59;4823588;29;20418;-74
2022/04/30 00:46:46;;;;;;;17.03;10.60;;;;;;;36.10;43.42;101015.50;4824626;29;20452;-74
2022/04/30 00:49:13;;;;;;;13.27;8.30;;;;;;;36.13;43.97;101012.19;4824596;29;20420;-72
2022/04/30 00:51:40;;;;;;;24.30;9.30;;;;;;;36.23;43.33;101003.97;4823462;29;20471;-72
2022/04/30 00:54:07;;;;;;;18.80;8.97;;;;;;;35.94;44.42;101007.56;4808475;29;20410;-71
2022/04/30 00:56:36;;;;;;;16.57;9.73;;;;;;;35.93;43.99;101010.56;4823236;29;20472;-73
2022/04/30 00:59:05;;;;;;;15.67;8.97;;;;;;;35.95;44.00;101011.06;4823297;29;20935;-71
2022/04/30 01:01:36;;;;;;;28.23;13.20;;;;;;;35.98;43.93;101007.81;4823246;29;20474;-72
2022/04/30 01:04:03;;;;;;;20.40;10.90;;;;;;;36.07;43.75;101003.34;4808212;29;20460;-74
2022/04/30 01:06:51;;;;;;;26.37;10.23;;;;;;;35.94;44.19;101006.75;4822952;29;20437;-72
2022/04/30 01:09:21;;;;;;;18.03;10.20;;;;;;;35.87;44.44;101014.38;4823331;29;20441;-73
2022/04/30 01:12:08;;;;;;;14.37;9.20;;;;;;;35.95;44.36;101013.75;4823134;29;20910;-73
2022/04/30 01:14:35;;;;;;;14.90;8.37;;;;;;;35.81;44.29;101010.94;4822818;29;20461;-72
2022/04/30 01:17:06;;;;;;;13.70;8.70;;;;;;;36.02;44.01;101006.91;4821992;29;20437;-72
2022/04/30 01:19:35;;;;;;;21.43;10.73;;;;;;;35.93;44.11;101005.16;4818642;29;20434;-71
2022/04/30 01:22:08;;;;;;;13.60;8.70;;;;;;;35.63;44.64;101004.38;4810991;29;20551;-72
2022/04/30 01:24:36;;;;;;;15.87;10.27;;;;;;;35.72;44.57;100997.25;4808370;29;20490;-72
2022/04/30 01:27:04;;;;;;;13.73;8.03;;;;;;;35.92;44.26;101000.84;4803600;29;20427;-73
2022/04/30 01:29:32;;;;;;;14.23;8.07;;;;;;;36.16;43.88;101001.63;4801802;29;20446;-72
2022/04/30 01:37:35;;;;;;;16.60;8.23;;;;;;;36.10;44.17;100993.88;4803461;29;20413;-73
2022/04/30 01:40:10;;;;;;;13.93;8.57;;;;;;;36.08;44.32;100979.84;4817114;29;20517;-70
2022/04/30 01:42:43;;;;;;;18.23;8.23;;;;;;;35.98;44.52;100970.00;4801973;29;20434;-73
2022/04/30 01:45:11;;;;;;;17.23;8.97;;;;;;;36.06;44.39;100978.25;4817202;29;20445;-73
2022/04/30 01:47:40;;;;;;;14.63;8.20;;;;;;;36.20;43.64;100967.53;4802851;29;20442;-73
2022/04/30 01:50:07;;;;;;;16.80;9.37;;;;;;;36.21;43.45;100971.03;4803885;29;20410;-73
2022/04/30 01:52:33;;;;;;;17.10;8.83;;;;;;;36.28;43.45;100966.09;4819408;29;20505;-74
2022/04/30 01:54:59;;;;;;;15.50;9.30;;;;;;;36.37;43.41;100964.31;4804270;29;20490;-73
2022/04/30 01:57:26;;;;;;;15.33;9.40;;;;;;;36.39;43.37;100962.16;4819699;29;20522;-73
2022/04/30 01:59:57;;;;;;;15.73;8.60;;;;;;;36.45;43.34;100962.88;4805444;29;20407;-73
2022/04/30 02:02:26;;;;;;;20.87;11.00;;;;;;;36.45;42.89;100965.59;4803904;29;20530;-72
2022/04/30 02:04:55;;;;;;;21.43;10.60;;;;;;;36.28;43.51;100966.09;4804085;29;20928;-73
2022/04/30 02:07:24;;;;;;;24.53;12.13;;;;;;;36.23;43.97;100963.47;4819038;29;20520;-71
2022/04/30 02:09:51;;;;;;;18.83;10.17;;;;;;;36.32;43.40;100954.38;4819297;29;20870;-73
2022/04/30 02:12:18;;;;;;;17.17;9.27;;;;;;;36.06;43.41;100962.06;4808426;29;20461;-71
2022/04/30 02:14:55;;;;;;;17.97;10.30;;;;;;;36.00;44.00;100957.81;4822303;29;20453;-73
2022/04/30 02:17:25;;;;;;;16.87;9.00;;;;;;;36.25;43.53;100958.56;4822193;29;20791;-73
2022/04/30 02:22:40;;;;;;;22.03;9.77;;;;;;;35.79;44.61;100942.94;4823593;29;20465;-71
2022/04/30 02:25:11;;;;;;;15.63;9.97;;;;;;;35.98;44.15;100933.00;4821664;29;20477;-71
2022/04/30 02:27:45;;;;;;;16.33;10.47;;;;;;;35.95;43.88;100921.97;4822789;29;20437;-73
2022/04/30 02:30:20;;;;;;;17.73;11.03;;;;;;;35.78;44.89;100922.44;4822008;29;20441;-73
2022/04/30 02:32:48;;;;;;;18.67;11.00;;;;;;;35.87;44.47;100925.31;4821969;29;20449;-71
2022/04/30 02:35:26;;;;;;;16.13;8.83;;;;;;;36.06;44.27;100929.66;4821878;29;20468;-72
2022/04/30 02:37:56;;;;;;;21.13;10.50;;;;;;;36.15;44.12;100926.28;4821321;29;20970;-72
2022/04/30 02:40:24;;;;;;;21.07;10.43;;;;;;;35.89;44.98;100917.72;4821782;29;20817;-73
2022/04/30 02:42:51;;;;;;;24.57;12.77;;;;;;;36.09;44.29;100913.94;4821724;29;20449;-73
2022/04/30 02:45:18;;;;;;;30.13;14.13;;;;;;;36.24;43.74;100908.34;4821868;29;20428;-74
2022/04/30 02:47:48;;;;;;;18.13;11.97;;;;;;;35.96;44.75;100910.06;4821855;29;20915;-72
2022/04/30 02:50:15;;;;;;;20.27;10.50;;;;;;;36.15;44.90;100918.19;4821523;29;20438;-71
2022/04/30 02:52:42;;;;;;;33.20;12.80;;;;;;;35.91;44.94;100924.47;4823079;29;20897;-71
2022/04/30 02:55:10;;;;;;;19.93;13.40;;;;;;;35.90;44.98;100917.41;4822936;29;20413;-72
2022/04/30 02:59:53;;;;;;;21.00;10.50;;;;;;;35.93;45.02;100919.56;4821557;29;20922;-73
2022/04/30 03:00:29;;;;;;;21.13;10.43;;;;;;;35.67;46.11;100923.69;4817735;29;20469;-72
2022/04/30 03:02:56;;;;;;;11.37;8.10;;;;;;;35.43;46.30;100921.78;4803091;29;20610;-73
2022/04/30 03:05:22;;;;;;;18.90;9.93;;;;;;;35.68;46.15;100914.47;4816840;29;21026;-74
2022/04/30 03:07:48;;;;;;;21.07;10.20;;;;;;;35.62;46.12;100915.63;4816823;29;20521;-73
2022/04/30 03:10:15;;;;;;;15.63;10.10;;;;;;;35.84;45.74;100923.97;4802728;29;20411;-73
2022/04/30 03:12:42;;;;;;;17.23;8.37;;;;;;;35.86;45.93;100921.81;4801463;29;20426;-73
2022/04/30 03:15:09;;;;;;;13.50;9.33;;;;;;;35.89;45.20;100926.59;4801396;29;20437;-73
2022/04/30 03:23:05;;;;;;;14.73;10.13;;;;;;;35.49;46.68;100939.53;4803039;29;20878;-73
2022/04/30 03:25:31;;;;;;;16.80;10.20;;;;;;;35.59;46.83;100943.19;4801246;29;20479;-74
2022/04/30 03:27:57;;;;;;;18.60;10.50;;;;;;;35.71;45.98;100944.38;4801532;29;20509;-72
2022/04/30 03:30:23;;;;;;;16.10;9.30;;;;;;;35.84;45.68;100947.47;4802755;29;20893;-72
2022/04/30 03:32:50;;;;;;;18.03;8.83;;;;;;;35.67;45.97;100947.97;4816420;29;20458;-73
2022/04/30 03:35:16;;;;;;;17.83;9.47;;;;;;;35.67;46.55;100942.56;4801428;29;20880;-73
2022/04/30 03:37:42;;;;;;;14.53;9.20;;;;;;;35.79;45.81;100951.06;4802668;29;20935;-73
2022/04/30 03:40:09;;;;;;;13.13;8.37;;;;;;;35.88;45.62;100949.31;4817126;29;20426;-71
2022/04/30 03:42:35;;;;;;;14.37;9.57;;;;;;;35.88;45.38;100949.31;4804395;29;20916;-71
2022/04/30 03:45:05;;;;;;;15.00;9.20;;;;;;;35.57;46.67;100958.88;4818224;29;20426;-73
2022/04/30 03:47:31;;;;;;;12.27;9.77;;;;;;;35.48;46.47;100955.97;4802990;29;20422;-73
2022/04/30 03:49:59;;;;;;;18.73;10.97;;;;;;;35.71;46.67;100954.38;4819166;29;20433;-73
2022/04/30 03:52:25;;;;;;;16.43;9.03;;;;;;;35.83;45.91;100957.47;4820901;29;20418;-73
2022/04/30 03:54:51;;;;;;;16.43;9.37;;;;;;;35.88;45.81;100962.00;4821275;29;20422;-73
2022/04/30 03:57:17;;;;;;;16.37;9.40;;;;;;;35.73;46.21;100963.81;4821193;29;20965;-71
2022/04/30 03:59:43;;;;;;;12.20;9.00;;;;;;;35.47;47.07;100968.66;4821528;29;20418;-73
2022/04/30 04:02:09;;;;;;;17.23;8.20;;;;;;;35.72;46.14;100972.16;4807393;29;20464;-73
2022/04/30 04:04:35;;;;;;;14.47;8.13;;;;;;;35.61;46.19;100976.09;4821054;29;20430;-72
2022/04/30 04:07:01;;;;;;;19.10;9.33;;;;;;;35.54;46.50;100981.81;4821072;29;20426;-71
2022/04/30 04:09:27;;;;;;;15.87;9.67;;;;;;;35.68;46.72;100981.94;4821179;29;20429;-71
2022/04/30 04:11:54;;;;;;;16.93;8.87;;;;;;;35.91;45.99;100988.41;4821054;29;20419;-72
2022/04/30 04:19:48;;;;;;;16.23;12.20;;;;;;;35.83;45.67;100987.16;4807114;29;20451;-73
2022/04/30 04:22:14;;;;;;;13.57;9.43;;;;;;;35.76;45.94;100989.41;4820857;29;20465;-73
2022/04/30 04:27:25;;;;;;;13.60;8.27;;;;;;;35.87;46.14;100993.59;4806876;29;20497;-74
2022/04/30 04:29:51;;;;;;;18.70;10.70;;;;;;;35.39;47.17;100996.25;4806941;29;20501;-73
2022/04/30 04:32:17;;;;;;;15.27;9.80;;;;;;;35.46;47.24;100996.72;4806901;29;20426;-71
2022/04/30 04:34:43;;;;;;;17.87;10.20;;;;;;;35.50;47.04;100991.59;4820727;29;20422;-72
2022/04/30 04:37:09;;;;;;;13.90;11.23;;;;;;;35.62;46.51;100993.88;4805471;29;20546;-72
2022/04/30 04:39:35;;;;;;;17.07;9.80;;;;;;;35.30;47.52;101007.91;4820579;29;20431;-73
2022/04/30 04:42:02;;;;;;;16.57;10.77;;;;;;;35.29;47.56;101009.81;4806653;29;20464;-71
2022/04/30 04:44:28;;;;;;;16.57;10.57;;;;;;;35.49;46.74;101012.38;4806693;29;20472;-73
2022/04/30 04:46:54;;;;;;;20.60;16.03;;;;;;;35.38;47.18;101008.13;4805471;29;20417;-73
2022/04/30 04:49:20;;;;;;;19.90;16.13;;;;;;;35.32;47.29;101009.25;4820358;29;20414;-72
2022/04/30 04:51:46;;;;;;;27.70;20.57;;;;;;;35.49;46.72;101011.56;4805571;29;20421;-73
2022/04/30 04:54:12;;;;;;;24.60;18.03;;;;;;;35.46;46.68;101012.91;4805210;29;20891;-74
2022/04/30 04:56:39;;;;;;;35.30;20.53;;;;;;;35.64;46.34;101014.09;4805198;29;20433;-72
2022/04/30 04:59:05;;;;;;;35.00;19.83;;;;;;;35.58;46.62;101014.44;4805250;29;20438;-71
2022/04/30 05:01:31;;;;;;;36.10;17.53;;;;;;;35.10;47.50;101023.19;4804759;29;20473;-72
2022/04/30 05:03:57;;;;;;;20.87;14.00;;;;;;;34.91;47.82;101031.13;4820277;29;20479;-72
2022/04/30 05:06:24;;;;;;;17.33;11.83;;;;;;;34.81;48.09;101023.16;4804962;29;20435;-71
2022/04/30 05:08:50;;;;;;;16.77;12.80;;;;;;;35.13;47.66;101030.72;4806153;29;20801;-72
2022/04/30 05:11:16;;;;;;;17.67;15.70;;;;;;;35.18;47.06;101036.09;4820112;29;20948;-73
2022/04/30 05:13:42;;;;;;;27.43;16.20;;;;;;;35.10;47.48;101041.25;4820021;29;20532;-74
2022/04/30 05:16:08;;;;;;;16.27;12.90;;;;;;;35.11;47.30;101050.97;4805105;29;20419;-72
2022/04/30 05:18:34;;;;;;;25.03;15.23;;;;;;;34.98;47.33;101052.41;4806107;29;20407;-73
2022/04/30 05:21:00;;;;;;;27.30;17.13;;;;;;;34.71;48.06;101056.34;4819670;29;20473;-72
2022/04/30 05:23:26;;;;;;;24.23;18.20;;;;;;;34.50;48.90;101054.88;4822259;29;20417;-73
2022/04/30 05:25:54;;;;;;;22.50;16.13;;;;;;;34.43;48.99;101059.72;4822209;29;20470;-72
2022/04/30 05:28:20;;;;;;;27.20;16.07;;;;;;;34.33;49.01;101063.25;4822681;29;20452;-72
2022/04/30 05:30:46;;;;;;;18.27;11.83;;;;;;;34.44;48.81;101064.06;4822836;29;20517;-71
2022/04/30 05:33:12;;;;;;;21.50;13.50;;;;;;;34.50;48.66;101060.25;4822690;29;20449;-71
2022/04/30 05:35:38;;;;;;;15.77;12.63;;;;;;;34.89;47.75;101073.75;4822810;29;20431;-73
2022/04/30 05:38:04;;;;;;;19.33;11.03;;;;;;;34.96;47.51;101065.38;4822545;29;20517;-72
2022/04/30 05:40:30;;;;;;;19.87;12.07;;;;;;;35.15;47.51;101068.19;4822668;29;20421;-71
2022/04/30 05:42:56;;;;;;;15.90;11.57;;;;;;;35.05;47.30;101073.66;4822565;29;20959;-73
2022/04/30 05:45:23;;;;;;;22.20;12.50;;;;;;;35.25;46.75;101082.41;4822560;29;20422;-73
2022/04/30 05:47:49;;;;;;;18.77;13.10;;;;;;;35.38;46.57;101086.34;4822594;29;20421;-73
2022/04/30 05:50:15;;;;;;;17.50;12.90;;;;;;;35.44;46.74;101085.25;4822294;29;20445;-74
2022/04/30 05:52:41;;;;;;;13.93;11.33;;;;;;;35.59;46.08;101092.38;4823807;29;20399;-74
2022/04/30 05:55:07;;;;;;;18.80;12.80;;;;;;;35.60;45.91;101088.59;4823659;29;20829;-71
2022/04/30 05:57:33;;;;;;;28.37;13.17;;;;;;;35.65;46.00;101090.44;4822438;29;20438;-73
2022/04/30 06:00:00;;;;;;;30.87;14.23;;;;;;;35.84;45.49;101098.63;4823766;29;20424;-73
2022/04/30 06:02:26;;;;;;;22.10;12.67;;;;;;;35.90;45.31;101097.47;4822130;29;20473;-74
2022/04/30 06:04:52;;;;;;;16.80;13.33;;;;;;;35.72;45.88;101099.00;4823676;29;20481;-73
2022/04/30 06:07:18;;;;;;;23.10;13.53;;;;;;;35.71;45.83;101089.31;4822359;29;20524;-73
2022/04/30 06:09:45;;;;;;;16.93;13.37;;;;;;;35.92;45.08;101096.16;4842178;23;20433;-71
2022/04/30 06:12:11;;;;;;;20.77;14.40;;;;;;;35.97;45.40;101104.19;4878071;29;20404;-73
2022/04/30 06:14:37;;;;;;;22.47;15.50;;;;;;;36.08;44.81;101104.06;4861719;29;20427;-73
2022/04/30 06:17:04;;;;;;;28.30;17.83;;;;;;;36.21;44.70;101109.56;4861647;29;20534;-73
2022/04/30 06:19:30;;;;;;;21.53;15.20;;;;;;;36.37;44.31;101115.59;4862000;29;20430;-71
2022/04/30 06:21:56;;;;;;;17.73;12.93;;;;;;;36.47;44.82;101117.41;4861520;29;21013;-72
2022/04/30 06:24:22;;;;;;;20.57;15.00;;;;;;;36.53;44.25;101121.66;4861564;29;20450;-69
2022/04/30 06:26:48;;;;;;;24.53;15.20;;;;;;;36.51;43.72;101134.63;4878329;29;20434;-72
2022/04/30 06:29:15;;;;;;;22.80;15.13;;;;;;;36.57;43.99;101136.97;4878381;29;20430;-72
2022/04/30 06:31:41;;;;;;;16.60;12.83;;;;;;;36.69;43.56;101135.75;4878360;29;20399;-72
2022/04/30 06:34:07;;;;;;;16.97;12.67;;;;;;;36.59;43.62;101142.91;4860973;29;20430;-68
2022/04/30 06:36:34;;;;;;;17.20;12.97;;;;;;;36.61;43.53;101149.94;4844512;29;20451;-69
2022/04/30 06:39:00;;;;;;;17.87;12.00;;;;;;;36.77;43.94;101154.03;4864881;29;20447;-68
2022/04/30 06:41:26;;;;;;;18.37;13.30;;;;;;;36.88;43.24;101160.13;4845718;29;20479;-69
2022/04/30 06:43:52;;;;;;;19.33;11.03;;;;;;;36.97;43.24;101163.81;4860885;29;20478;-67
2022/04/30 06:46:20;;;;;;;27.83;12.47;;;;;;;36.96;42.69;101168.41;4860916;29;20439;-68
2022/04/30 06:49:01;;;;;;;36.73;15.60;;;;;;;36.90;42.92;101176.88;4860823;29;20816;-71
2022/04/30 06:51:30;;;;;;;30.63;14.67;;;;;;;36.66;43.60;101180.41;4858680;29;20430;-71
2022/04/30 06:59:28;;;;;;;18.50;12.87;;;;;;;36.72;43.28;101183.84;4872972;29;20498;-68
2022/04/30 07:02:01;;;;;;;22.17;15.17;;;;;;;36.72;43.67;101189.25;4851880;29;20467;-69
2022/04/30 07:04:29;;;;;;;21.33;11.60;;;;;;;36.75;43.49;101194.06;4854661;29;20900;-70
2022/04/30 07:06:56;;;;;;;20.60;12.70;;;;;;;36.86;43.50;101195.53;4857426;29;20446;-69
2022/04/30 07:09:22;;;;;;;31.00;17.83;;;;;;;37.03;42.99;101195.88;4852483;29;20435;-68
2022/04/30 07:11:48;;;;;;;24.90;17.30;;;;;;;37.09;43.04;101207.44;4865145;29;20514;-68
2022/04/30 07:14:14;;;;;;;19.77;15.80;;;;;;;37.16;42.60;101212.47;4858447;29;20420;-68
2022/04/30 07:16:42;;;;;;;26.00;15.10;;;;;;;37.22;42.68;101216.72;4839894;29;20442;-68
2022/04/30 07:19:08;;;;;;;18.40;13.73;;;;;;;37.29;43.05;101211.75;4883179;29;20474;-68
2022/04/30 07:21:34;;;;;;;14.37;12.20;;;;;;;37.19;43.17;101211.88;4876904;29;20459;-69
2022/04/30 07:24:01;;;;;;;20.40;12.00;;;;;;;37.24;42.43;101211.81;4853873;29;20463;-68
2022/04/30 07:26:28;;;;;;;18.83;11.20;;;;;;;37.29;42.96;101217.16;4860397;29;20428;-69
2022/04/30 07:28:54;;;;;;;22.57;12.77;;;;;;;37.33;42.46;101218.19;4891607;29;20504;-70
2022/04/30 07:31:20;;;;;;;16.03;11.33;;;;;;;37.43;42.95;101218.03;4853443;29;20465;-68
2022/04/30 07:33:47;;;;;;;20.77;13.77;;;;;;;37.50;42.63;101223.88;4875756;29;20415;-69
2022/04/30 07:36:14;;;;;;;20.57;15.13;;;;;;;37.56;42.94;101222.72;4870701;29;20472;-68
2022/04/30 07:38:40;;;;;;;17.33;13.60;;;;;;;37.57;42.93;101231.66;4853468;29;20434;-68
2022/04/30 07:41:06;;;;;;;26.83;19.13;;;;;;;37.65;42.66;101225.56;4857075;29;20517;-68
2022/04/30 07:43:32;;;;;;;22.17;14.80;;;;;;;37.63;42.67;101223.16;4870225;29;20411;-67
2022/04/30 07:45:58;;;;;;;18.87;14.80;;;;;;;37.76;42.65;101237.03;4853442;29;20427;-68
2022/04/30 07:48:24;;;;;;;19.43;12.70;;;;;;;37.45;42.67;101232.09;4841814;29;20446;-67
2022/04/30 07:50:52;;;;;;;19.93;14.47;;;;;;;37.39;42.90;101238.69;4870625;29;20463;-68
2022/04/30 07:53:18;;;;;;;24.17;14.10;;;;;;;37.24;43.34;101234.25;4854344;29;20514;-68
2022/04/30 07:55:44;;;;;;;16.03;12.30;;;;;;;37.29;43.64;101236.09;4853721;29;20466;-68
2022/04/30 07:58:11;;;;;;;20.10;14.97;;;;;;;37.28;43.81;101245.31;4853169;29;20423;-68
2022/04/30 08:00:37;;;;;;;21.70;13.97;;;;;;;37.44;42.98;101252.13;4854154;29;20422;-68
2022/04/30 08:03:03;;;;;;;23.73;17.80;;;;;;;37.41;43.29;101250.00;4856495;29;20452;-68
2022/04/30 08:05:29;;;;;;;20.47;14.80;;;;;;;37.50;43.21;101252.84;4852533;29;20850;-71
2022/04/30 08:07:56;;;;;;;20.93;14.97;;;;;;;37.49;43.07;101243.94;4852057;29;20557;-70
2022/04/30 08:10:22;;;;;;;25.73;14.80;;;;;;;37.53;43.11;101246.88;4878682;29;20474;-71
2022/04/30 08:12:56;;;;;;;20.40;15.00;;;;;;;37.69;42.65;101252.84;4861565;29;20430;-69
2022/04/30 08:15:24;;;;;;;19.47;17.30;;;;;;;37.57;42.81;101256.03;4853456;29;20424;-70
2022/04/30 08:17:52;;;;;;;23.13;18.80;;;;;;;37.47;43.27;101256.97;4857605;29;20455;-70
2022/04/30 08:20:18;;;;;;;22.07;18.73;;;;;;;37.52;43.38;101251.47;4847858;29;20435;-71
2022/04/30 08:22:44;;;;;;;25.83;17.40;;;;;;;37.58;43.03;101255.72;4845147;29;20439;-72
2022/04/30 08:25:11;;;;;;;19.83;16.00;;;;;;;37.65;42.62;101252.63;4844938;29;20999;-72
2022/04/30 08:27:37;;;;;;;23.03;16.33;;;;;;;37.64;43.33;101249.13;4845190;29;20495;-69
2022/04/30 08:30:04;;;;;;;19.40;16.67;;;;;;;37.71;43.58;101250.66;4869375;29;20408;-71
2022/04/30 08:32:30;;;;;;;25.70;17.67;;;;;;;37.83;42.65;101246.41;4853709;29;20935;-73
2022/04/30 08:35:00;;;;;;;21.67;15.20;;;;;;;37.82;42.68;101252.94;4857055;29;20427;-70
2022/04/30 08:37:26;;;;;;;19.00;14.40;;;;;;;37.81;42.69;101250.50;4853805;29;20435;-73
2022/04/30 08:39:52;;;;;;;22.03;14.43;;;;;;;37.85;42.92;101248.81;4852375;29;20955;-70
2022/04/30 08:42:22;;;;;;;22.60;14.20;;;;;;;37.85;42.76;101244.19;4851947;29;20476;-74
2022/04/30 08:44:48;;;;;;;19.13;14.13;;;;;;;37.98;42.71;101245.34;4851334;29;20569;-76
2022/04/30 08:47:14;;;;;;;31.73;14.67;;;;;;;38.01;42.44;101238.53;4874960;29;20419;-69
2022/04/30 08:49:44;;;;;;;22.23;13.83;;;;;;;38.12;42.11;101238.06;4852714;29;20518;-69
2022/04/30 08:52:15;;;;;;;21.13;10.83;;;;;;;38.20;42.32;101241.19;4879070;29;20443;-70
2022/04/30 08:54:42;;;;;;;18.73;10.23;;;;;;;38.29;41.84;101234.78;4863035;29;20430;-70
2022/04/30 08:57:08;;;;;;;19.03;11.00;;;;;;;38.25;41.54;101231.06;4863116;29;20423;-72
2022/04/30 08:59:34;;;;;;;16.03;9.63;;;;;;;38.28;41.77;101230.47;4879991;29;20414;-70
2022/04/30 09:02:02;;;;;;;18.50;10.00;;;;;;;38.40;41.49;101233.50;4879472;29;20510;-69
2022/04/30 09:04:43;;;;;;;16.27;9.60;;;;;;;38.38;41.46;101229.47;4848011;29;20431;-71
2022/04/30 09:07:14;;;;;;;18.80;11.90;;;;;;;38.43;41.60;101229.38;4879235;29;20908;-72
2022/04/30 09:09:40;;;;;;;12.57;9.23;;;;;;;38.40;41.35;101233.50;4862712;29;20427;-74
2022/04/30 09:12:11;;;;;;;15.63;11.80;;;;;;;38.44;41.16;101236.41;4879244;29;20439;-71
2022/04/30 09:14:41;;;;;;;39.10;14.40;;;;;;;38.45;41.30;101229.88;4846990;29;20431;-71
2022/04/30 09:17:12;;;;;;;20.57;9.50;;;;;;;38.41;41.23;101235.09;4862353;29;20479;-71
2022/04/30 09:19:52;;;;;;;18.63;12.60;;;;;;;38.38;41.45;101232.19;4869253;29;20431;-69
2022/04/30 09:22:30;;;;;;;18.40;12.83;;;;;;;38.41;41.55;101235.09;4843709;29;20841;-69
2022/04/30 09:24:58;;;;;;;15.73;10.93;;;;;;;38.36;42.00;101232.47;4844034;29;20450;-68
2022/04/30 09:27:25;;;;;;;20.60;12.07;;;;;;;38.36;41.87;101237.91;4829124;29;20884;-67
2022/04/30 09:29:51;;;;;;;14.13;10.83;;;;;;;38.38;42.09;101235.72;4844340;29;20487;-68
2022/04/30 09:32:23;;;;;;;15.70;11.27;;;;;;;38.53;41.82;101236.50;4853413;29;20558;-68
2022/04/30 09:37:52;;;;;;;17.27;11.37;;;;;;;38.56;41.97;101233.22;4879780;29;20450;-70
2022/04/30 09:40:20;;;;;;;23.90;9.83;;;;;;;38.53;42.11;101231.88;4851945;29;20481;-73
2022/04/30 09:42:48;;;;;;;14.20;8.40;;;;;;;38.47;41.82;101238.50;4856394;29;20490;-69
2022/04/30 09:45:26;;;;;;;16.10;9.30;;;;;;;38.55;41.62;101243.25;4853707;29;20944;-70
2022/04/30 09:47:54;;;;;;;22.63;9.83;;;;;;;38.55;41.73;101250.53;4853540;29;20463;-71
2022/04/30 09:55:53;;;;;;;21.20;11.10;;;;;;;38.72;41.77;101258.91;4869469;29;20500;-72
2022/04/30 09:58:25;;;;;;;19.90;10.67;;;;;;;38.76;42.04;101251.00;4851862;29;20929;-73
2022/04/30 10:00:58;;;;;;;19.80;9.40;;;;;;;38.80;41.63;101265.56;4851625;29;20498;-74
2022/04/30 10:03:28;;;;;;;14.93;8.97;;;;;;;38.86;41.36;101264.34;4853576;29;20932;-74
2022/04/30 10:06:00;;;;;;;20.20;9.10;;;;;;;38.74;41.58;101258.63;4852777;29;20459;-71
2022/04/30 10:08:29;;;;;;;16.20;10.23;;;;;;;38.77;41.63;101256.09;4824571;29;20936;-69
2022/04/30 10:11:32;;;;;;;15.13;8.47;;;;;;;38.80;41.74;101254.72;4872107;29;20546;-69
2022/04/30 10:14:30;;;;;;;16.47;9.87;;;;;;;38.88;41.42;101259.41;4869742;29;20442;-70
2022/04/30 10:17:16;;;;;;;27.23;11.20;;;;;;;38.84;41.71;101250.28;4851545;29;20505;-73
2022/04/30 10:19:45;;;;;;;26.00;12.53;;;;;;;38.81;41.46;101251.69;4871454;29;20427;-75
2022/04/30 10:22:16;;;;;;;22.97;11.53;;;;;;;38.85;41.38;101252.66;4854303;29;20491;-72
2022/04/30 10:24:47;;;;;;;34.80;12.47;;;;;;;38.81;41.61;101257.13;4853537;29;20843;-72
2022/04/30 10:27:15;;;;;;;18.37;8.90;;;;;;;38.72;41.71;101258.13;4861606;29;20513;-72
2022/04/30 10:30:02;;;;;;;13.67;8.23;;;;;;;38.76;41.57;101251.78;4861584;29;20495;-72
2022/04/30 10:32:35;;;;;;;15.80;10.10;;;;;;;38.79;41.57;101262.03;4861374;29;20478;-72
2022/04/30 10:35:03;;;;;;;23.67;8.83;;;;;;;38.84;41.25;101261.13;4861242;29;20438;-70
2022/04/30 10:37:34;;;;;;;18.77;10.23;;;;;;;38.86;41.56;101254.31;4861713;29;20415;-70
2022/04/30 10:40:11;;;;;;;13.17;8.90;;;;;;;38.89;41.61;101255.59;4859158;29;20434;-70
2022/04/30 10:42:45;;;;;;;12.00;9.30;;;;;;;38.91;41.50;101253.38;4852789;29;20490;-70
2022/04/30 10:45:15;;;;;;;24.23;9.73;;;;;;;38.99;41.51;101254.59;4851572;29;20432;-69
2022/04/30 10:47:58;;;;;;;29.70;10.90;;;;;;;38.95;41.85;101265.22;4849050;29;20455;-69
2022/04/30 10:50:25;;;;;;;19.77;12.30;;;;;;;38.91;41.74;101253.38;4850730;29;20796;-69
2022/04/30 10:52:54;;;;;;;20.33;10.03;;;;;;;38.92;41.89;101260.44;4847986;29;20457;-71
2022/04/30 10:55:22;;;;;;;20.33;9.83;;;;;;;39.02;41.52;101256.69;4868579;29;20506;-71
2022/04/30 10:57:48;;;;;;;15.00;9.60;;;;;;;39.02;41.37;101254.75;4871404;29;20955;-68
2022/04/30 11:00:15;;;;;;;19.20;10.53;;;;;;;39.05;41.75;101251.47;4862846;29;20533;-71
2022/04/30 11:02:41;;;;;;;15.50;11.30;;;;;;;39.03;41.71;101256.38;4863119;29;20498;-73
2022/04/30 11:05:23;;;;;;;29.77;11.23;;;;;;;38.87;41.95;101245.06;4849032;29;20455;-74
2022/04/30 11:07:50;;;;;;;20.00;11.90;;;;;;;38.87;41.66;101245.06;4842012;29;20443;-71
2022/04/30 11:10:16;;;;;;;23.97;12.97;;;;;;;38.94;41.86;101241.94;4875385;29;20581;-72
2022/04/30 11:12:44;;;;;;;28.17;12.23;;;;;;;38.99;41.45;101236.41;4877390;29;20420;-71
2022/04/30 11:15:11;;;;;;;20.87;12.03;;;;;;;38.94;41.55;101236.50;4880771;29;20450;-70
2022/04/30 11:17:45;;;;;;;20.10;12.93;;;;;;;38.86;41.84;101235.31;4864874;29;20425;-68
2022/04/30 11:20:20;;;;;;;22.90;12.50;;;;;;;38.87;41.92;101238.81;4855409;29;20510;-73
2022/04/30 11:22:56;;;;;;;20.70;13.20;;;;;;;38.83;42.62;101232.41;4855554;29;20917;-78
2022/04/30 11:25:23;;;;;;;22.00;13.90;;;;;;;38.91;42.41;101224.34;4854626;29;20499;-75
2022/04/30 11:27:56;;;;;;;34.70;16.80;;;;;;;38.90;42.29;101213.78;4853259;29;20486;-76
2022/04/30 11:30:22;;;;;;;23.10;16.07;;;;;;;38.87;41.85;101207.09;4853865;29;20461;-81
2022/04/30 11:32:48;;;;;;;20.00;13.90;;;;;;;38.86;42.20;101204.69;4871701;29;20459;-74
2022/04/30 11:35:19;;;;;;;20.53;12.13;;;;;;;38.68;42.55;101209.09;4863880;29;21007;-73
2022/04/30 11:37:45;;;;;;;14.70;10.37;;;;;;;38.78;42.27;101200.75;4864584;29;20442;-73
2022/04/30 11:40:12;;;;;;;21.50;11.57;;;;;;;38.86;42.24;101208.19;4864169;29;20435;-73
2022/04/30 11:42:39;;;;;;;26.40;11.57;;;;;;;38.92;42.13;101196.13;4861564;29;20489;-70
2022/04/30 11:45:06;;;;;;;22.70;11.40;;;;;;;39.02;41.79;101191.56;4845803;29;20994;-70
2022/04/30 11:47:32;;;;;;;15.40;10.20;;;;;;;39.01;41.72;101188.06;4845730;29;20455;-70
2022/04/30 11:50:09;;;;;;;12.73;10.30;;;;;;;38.95;41.90;101175.72;4862793;29;20912;-69
2022/04/30 11:52:36;;;;;;;26.43;11.03;;;;;;;38.86;42.43;101174.84;4879727;29;20422;-72